PRSMJ SBFZ-SBJP
Flight info
| Callsign | PRSMJ |
|---|---|
| Flight time | 1h 10m |
| Altitude | 33000 |
| Route | ESOPU UZ12 ISOBA DCT SAFUC |
| Aircraft | C525/L-SDFGRWY/S |
Departure
| Time | 2026-05-01 11:56 |
|---|---|
| Airport | Pinto Martins International Airport (SBFZ) |
Arrival
| Time | 2026-05-01 13:07 |
|---|---|
| Airport | Presidente Castro Pinto International Airport (SBJP) |
| Time | Latitude | Longitude | Altitude | Speed | Heading |
|---|---|---|---|---|---|
| 2026-05-01 11:36 | -3.77298 | -38.53691 | 88 ft | 0 kts | 102° |
| 2026-05-01 11:52 | -3.77300 | -38.53683 | 88 ft | 0 kts | 152° |
| 2026-05-01 11:52 | -3.77316 | -38.53682 | 88 ft | 3 kts | 175° |
| 2026-05-01 11:52 | -3.77344 | -38.53685 | 88 ft | 4 kts | 212° |
| 2026-05-01 11:53 | -3.77344 | -38.53723 | 88 ft | 6 kts | 284° |
| 2026-05-01 11:53 | -3.77330 | -38.53774 | 88 ft | 8 kts | 284° |
| 2026-05-01 11:53 | -3.77313 | -38.53839 | 89 ft | 10 kts | 285° |
| 2026-05-01 11:53 | -3.77293 | -38.53916 | 89 ft | 12 kts | 284° |
| 2026-05-01 11:54 | -3.77268 | -38.54007 | 88 ft | 14 kts | 287° |
| 2026-05-01 11:54 | -3.77237 | -38.54116 | 88 ft | 17 kts | 279° |
| 2026-05-01 11:54 | -3.77238 | -38.54244 | 87 ft | 19 kts | 266° |
| 2026-05-01 11:54 | -3.77263 | -38.54329 | 86 ft | 11 kts | 194° |
| 2026-05-01 11:55 | -3.77335 | -38.54345 | 86 ft | 5 kts | 173° |
| 2026-05-01 11:55 | -3.77342 | -38.54337 | 86 ft | 0 kts | 104° |
| 2026-05-01 11:55 | -3.77352 | -38.54299 | 87 ft | 28 kts | 105° |
| 2026-05-01 11:56 | -3.77463 | -38.53884 | 90 ft | 92 kts | 104° |
| 2026-05-01 11:56 | -3.77684 | -38.53118 | 186 ft | 126 kts | 110° |
| 2026-05-01 11:56 | -3.77968 | -38.52245 | 581 ft | 138 kts | 109° |
| 2026-05-01 11:56 | -3.78285 | -38.51277 | 1016 ft | 155 kts | 108° |
| 2026-05-01 11:57 | -3.78603 | -38.50187 | 1501 ft | 169 kts | 106° |
| 2026-05-01 11:57 | -3.78933 | -38.49021 | 1977 ft | 184 kts | 105° |
| 2026-05-01 11:57 | -3.79270 | -38.47744 | 2439 ft | 198 kts | 102° |
| 2026-05-01 11:57 | -3.79600 | -38.46350 | 2898 ft | 212 kts | 102° |
| 2026-05-01 11:58 | -3.79955 | -38.44871 | 3354 ft | 225 kts | 101° |
| 2026-05-01 11:58 | -3.80337 | -38.43324 | 3874 ft | 232 kts | 101° |
| 2026-05-01 11:58 | -3.81151 | -38.40145 | 4968 ft | 241 kts | 101° |
| 2026-05-01 11:59 | -3.81578 | -38.38512 | 5527 ft | 243 kts | 101° |
| 2026-05-01 11:59 | -3.82009 | -38.36882 | 6122 ft | 243 kts | 101° |
| 2026-05-01 11:59 | -3.82437 | -38.35267 | 6712 ft | 243 kts | 101° |
| 2026-05-01 12:00 | -3.83304 | -38.32024 | 7904 ft | 240 kts | 101° |
| 2026-05-01 12:00 | -3.83732 | -38.30425 | 8489 ft | 238 kts | 100° |
| 2026-05-01 12:00 | -3.84589 | -38.27231 | 9581 ft | 237 kts | 101° |
| 2026-05-01 12:01 | -3.85016 | -38.25641 | 10128 ft | 235 kts | 101° |
| 2026-05-01 12:01 | -3.85439 | -38.24088 | 10634 ft | 235 kts | 102° |
| 2026-05-01 12:01 | -3.86294 | -38.22657 | 11111 ft | 244 kts | 125° |
| 2026-05-01 12:01 | -3.87061 | -38.21827 | 11420 ft | 245 kts | 128° |
| 2026-05-01 12:02 | -3.91004 | -38.18023 | 12933 ft | 244 kts | 130° |
| 2026-05-01 12:02 | -3.92222 | -38.16864 | 13400 ft | 244 kts | 131° |
| 2026-05-01 12:03 | -3.93460 | -38.15684 | 13873 ft | 243 kts | 131° |
| 2026-05-01 12:03 | -3.94670 | -38.14529 | 14333 ft | 241 kts | 131° |
| 2026-05-01 12:03 | -3.95874 | -38.13380 | 14796 ft | 239 kts | 130° |
| 2026-05-01 12:03 | -3.97064 | -38.12241 | 15254 ft | 237 kts | 131° |
| 2026-05-01 12:04 | -3.98247 | -38.11111 | 15717 ft | 234 kts | 131° |
| 2026-05-01 12:04 | -3.99414 | -38.09994 | 16172 ft | 231 kts | 130° |
| 2026-05-01 12:04 | -4.00561 | -38.08898 | 16629 ft | 227 kts | 130° |
| 2026-05-01 12:04 | -4.01692 | -38.07815 | 17080 ft | 223 kts | 130° |
| 2026-05-01 12:05 | -4.02803 | -38.06752 | 17531 ft | 219 kts | 130° |
| 2026-05-01 12:05 | -4.04978 | -38.04668 | 18346 ft | 213 kts | 130° |
| 2026-05-01 12:05 | -4.06028 | -38.03662 | 18751 ft | 209 kts | 130° |
| 2026-05-01 12:06 | -4.07078 | -38.02656 | 19159 ft | 205 kts | 131° |
| 2026-05-01 12:06 | -4.08085 | -38.01691 | 19558 ft | 200 kts | 130° |
| 2026-05-01 12:06 | -4.09074 | -38.00745 | 19957 ft | 194 kts | 130° |
| 2026-05-01 12:06 | -4.10026 | -37.99833 | 20344 ft | 187 kts | 130° |
| 2026-05-01 12:07 | -4.10974 | -37.98925 | 20667 ft | 185 kts | 130° |
| 2026-05-01 12:07 | -4.11884 | -37.98051 | 21004 ft | 182 kts | 129° |
| 2026-05-01 12:07 | -4.12804 | -37.97168 | 21337 ft | 180 kts | 129° |
| 2026-05-01 12:07 | -4.13695 | -37.96313 | 21670 ft | 176 kts | 130° |
| 2026-05-01 12:08 | -4.14573 | -37.95472 | 21997 ft | 172 kts | 129° |
| 2026-05-01 12:08 | -4.15423 | -37.94657 | 22288 ft | 169 kts | 130° |
| 2026-05-01 12:08 | -4.16270 | -37.93844 | 22560 ft | 167 kts | 130° |
| 2026-05-01 12:08 | -4.17105 | -37.93041 | 22792 ft | 170 kts | 130° |
| 2026-05-01 12:09 | -4.17974 | -37.92203 | 23001 ft | 175 kts | 130° |
| 2026-05-01 12:09 | -4.18878 | -37.91332 | 23207 ft | 181 kts | 130° |
| 2026-05-01 12:09 | -4.19796 | -37.90449 | 23413 ft | 188 kts | 131° |
| 2026-05-01 12:09 | -4.20753 | -37.89529 | 23624 ft | 194 kts | 131° |
| 2026-05-01 12:10 | -4.21748 | -37.88573 | 23834 ft | 200 kts | 131° |
| 2026-05-01 12:10 | -4.23830 | -37.86575 | 24254 ft | 213 kts | 131° |
| 2026-05-01 12:10 | -4.24914 | -37.85534 | 24459 ft | 220 kts | 132° |
| 2026-05-01 12:11 | -4.27192 | -37.83349 | 24877 ft | 233 kts | 132° |
| 2026-05-01 12:11 | -4.28373 | -37.82216 | 25080 ft | 239 kts | 133° |
| 2026-05-01 12:11 | -4.29595 | -37.81044 | 25356 ft | 243 kts | 132° |
| 2026-05-01 12:12 | -4.30735 | -37.79792 | 25629 ft | 244 kts | 125° |
| 2026-05-01 12:12 | -4.31772 | -37.78448 | 25896 ft | 246 kts | 124° |
| 2026-05-01 12:12 | -4.32803 | -37.77062 | 26168 ft | 249 kts | 124° |
| 2026-05-01 12:12 | -4.33837 | -37.75663 | 26448 ft | 251 kts | 124° |
| 2026-05-01 12:13 | -4.34867 | -37.74273 | 26762 ft | 251 kts | 124° |
| 2026-05-01 12:13 | -4.35902 | -37.72877 | 27127 ft | 249 kts | 124° |
| 2026-05-01 12:13 | -4.36935 | -37.71487 | 27484 ft | 247 kts | 124° |
| 2026-05-01 12:13 | -4.37957 | -37.70112 | 27844 ft | 244 kts | 124° |
| 2026-05-01 12:14 | -4.38958 | -37.68767 | 28202 ft | 241 kts | 124° |
| 2026-05-01 12:14 | -4.39955 | -37.67428 | 28559 ft | 237 kts | 124° |
| 2026-05-01 12:14 | -4.40922 | -37.66130 | 28924 ft | 233 kts | 124° |
| 2026-05-01 12:14 | -4.41886 | -37.64836 | 29291 ft | 228 kts | 124° |
| 2026-05-01 12:15 | -4.42819 | -37.63585 | 29653 ft | 223 kts | 124° |
| 2026-05-01 12:15 | -4.43728 | -37.62364 | 30012 ft | 217 kts | 124° |
| 2026-05-01 12:15 | -4.44623 | -37.61166 | 30346 ft | 211 kts | 124° |
| 2026-05-01 12:15 | -4.45486 | -37.60006 | 30672 ft | 206 kts | 125° |
| 2026-05-01 12:16 | -4.46335 | -37.58868 | 30938 ft | 203 kts | 123° |
| 2026-05-01 12:16 | -4.47178 | -37.57735 | 31171 ft | 201 kts | 124° |
| 2026-05-01 12:16 | -4.48004 | -37.56625 | 31402 ft | 198 kts | 125° |
| 2026-05-01 12:16 | -4.48827 | -37.55524 | 31642 ft | 195 kts | 124° |
| 2026-05-01 12:17 | -4.49639 | -37.54433 | 31822 ft | 194 kts | 124° |
| 2026-05-01 12:17 | -4.50433 | -37.53365 | 31999 ft | 192 kts | 124° |
| 2026-05-01 12:17 | -4.51232 | -37.52292 | 32191 ft | 189 kts | 124° |
| 2026-05-01 12:17 | -4.52013 | -37.51244 | 32384 ft | 186 kts | 124° |
| 2026-05-01 12:18 | -4.52778 | -37.50219 | 32572 ft | 183 kts | 124° |
| 2026-05-01 12:18 | -4.53538 | -37.49198 | 32706 ft | 182 kts | 124° |
| 2026-05-01 12:18 | -4.54298 | -37.48177 | 32810 ft | 184 kts | 124° |
| 2026-05-01 12:18 | -4.55069 | -37.47143 | 32923 ft | 185 kts | 124° |
| 2026-05-01 12:19 | -4.55844 | -37.46100 | 32972 ft | 189 kts | 124° |
| 2026-05-01 12:19 | -4.56638 | -37.45034 | 32984 ft | 196 kts | 124° |
| 2026-05-01 12:19 | -4.57474 | -37.43910 | 32979 ft | 203 kts | 124° |
| 2026-05-01 12:19 | -4.58331 | -37.42758 | 32979 ft | 211 kts | 124° |
| 2026-05-01 12:20 | -4.59225 | -37.41558 | 32980 ft | 219 kts | 125° |
| 2026-05-01 12:20 | -4.60161 | -37.40300 | 32977 ft | 228 kts | 125° |
| 2026-05-01 12:20 | -4.61128 | -37.39001 | 32977 ft | 236 kts | 125° |
| 2026-05-01 12:20 | -4.62125 | -37.37662 | 32978 ft | 245 kts | 125° |
| 2026-05-01 12:21 | -4.63165 | -37.36266 | 32981 ft | 253 kts | 125° |
| 2026-05-01 12:21 | -4.64230 | -37.34834 | 32977 ft | 262 kts | 125° |
| 2026-05-01 12:21 | -4.65347 | -37.33334 | 32975 ft | 271 kts | 125° |
| 2026-05-01 12:21 | -4.66495 | -37.31793 | 32979 ft | 280 kts | 125° |
| 2026-05-01 12:22 | -4.67676 | -37.30207 | 32978 ft | 288 kts | 125° |
| 2026-05-01 12:22 | -4.68878 | -37.28592 | 32972 ft | 296 kts | 125° |
| 2026-05-01 12:22 | -4.71401 | -37.25203 | 32966 ft | 306 kts | 125° |
| 2026-05-01 12:23 | -4.73970 | -37.21753 | 32965 ft | 311 kts | 125° |
| 2026-05-01 12:23 | -4.76570 | -37.18260 | 32965 ft | 316 kts | 126° |
| 2026-05-01 12:24 | -4.79223 | -37.14695 | 32964 ft | 320 kts | 125° |
| 2026-05-01 12:24 | -4.81891 | -37.11110 | 32963 ft | 323 kts | 125° |
| 2026-05-01 12:25 | -4.85951 | -37.05652 | 32972 ft | 327 kts | 125° |
| 2026-05-01 12:26 | -4.88688 | -37.01972 | 32975 ft | 330 kts | 125° |
| 2026-05-01 12:26 | -4.92811 | -36.96427 | 32980 ft | 333 kts | 125° |
| 2026-05-01 12:27 | -4.96976 | -36.90824 | 32980 ft | 335 kts | 125° |
| 2026-05-01 12:28 | -5.01166 | -36.85184 | 32975 ft | 337 kts | 125° |
| 2026-05-01 12:29 | -5.05386 | -36.79502 | 32968 ft | 339 kts | 125° |
| 2026-05-01 12:29 | -5.09619 | -36.73801 | 32957 ft | 340 kts | 125° |
| 2026-05-01 12:30 | -5.13851 | -36.68101 | 32948 ft | 341 kts | 125° |
| 2026-05-01 12:31 | -5.16675 | -36.64296 | 32954 ft | 341 kts | 125° |
| 2026-05-01 12:31 | -5.19509 | -36.60477 | 32952 ft | 341 kts | 125° |
| 2026-05-01 12:32 | -5.22360 | -36.56634 | 32955 ft | 342 kts | 125° |
| 2026-05-01 12:32 | -5.26611 | -36.50903 | 32958 ft | 342 kts | 125° |
| 2026-05-01 12:33 | -5.29443 | -36.47085 | 32963 ft | 342 kts | 125° |
| 2026-05-01 12:33 | -5.32280 | -36.43258 | 32966 ft | 342 kts | 125° |
| 2026-05-01 12:34 | -5.35130 | -36.39415 | 32965 ft | 342 kts | 125° |
| 2026-05-01 12:34 | -5.37971 | -36.35582 | 32966 ft | 342 kts | 125° |
| 2026-05-01 12:35 | -5.40815 | -36.31746 | 32969 ft | 342 kts | 124° |
| 2026-05-01 12:35 | -5.43653 | -36.27914 | 32970 ft | 343 kts | 124° |
| 2026-05-01 12:36 | -5.46503 | -36.24068 | 32977 ft | 343 kts | 124° |
| 2026-05-01 12:36 | -5.49399 | -36.20289 | 32969 ft | 344 kts | 131° |
| 2026-05-01 12:37 | -5.53145 | -36.17247 | 32983 ft | 346 kts | 142° |
| 2026-05-01 12:37 | -5.57062 | -36.14416 | 32982 ft | 347 kts | 142° |
| 2026-05-01 12:38 | -5.60975 | -36.11599 | 32984 ft | 347 kts | 142° |
| 2026-05-01 12:38 | -5.64895 | -36.08773 | 32984 ft | 347 kts | 142° |
| 2026-05-01 12:39 | -5.68843 | -36.05923 | 32984 ft | 347 kts | 142° |
| 2026-05-01 12:39 | -5.72765 | -36.03090 | 32984 ft | 347 kts | 142° |
| 2026-05-01 12:40 | -5.76683 | -36.00258 | 32984 ft | 347 kts | 142° |
| 2026-05-01 12:40 | -5.78669 | -35.98822 | 32647 ft | 356 kts | 142° |
| 2026-05-01 12:40 | -5.80671 | -35.97373 | 32148 ft | 356 kts | 141° |
| 2026-05-01 12:41 | -5.82670 | -35.95929 | 31640 ft | 353 kts | 141° |
| 2026-05-01 12:41 | -5.84643 | -35.94502 | 31133 ft | 350 kts | 141° |
| 2026-05-01 12:41 | -5.86623 | -35.93071 | 30618 ft | 348 kts | 141° |
| 2026-05-01 12:41 | -5.88576 | -35.91658 | 30107 ft | 346 kts | 141° |
| 2026-05-01 12:42 | -5.90533 | -35.90243 | 29595 ft | 343 kts | 141° |
| 2026-05-01 12:42 | -5.92439 | -35.88865 | 29094 ft | 341 kts | 141° |
| 2026-05-01 12:42 | -5.94361 | -35.87474 | 28584 ft | 338 kts | 140° |
| 2026-05-01 12:42 | -5.96245 | -35.86111 | 28144 ft | 332 kts | 141° |
| 2026-05-01 12:43 | -5.98107 | -35.84764 | 27722 ft | 326 kts | 140° |
| 2026-05-01 12:43 | -5.99945 | -35.83435 | 27300 ft | 321 kts | 140° |
| 2026-05-01 12:43 | -6.01739 | -35.82136 | 26884 ft | 317 kts | 141° |
| 2026-05-01 12:43 | -6.03516 | -35.80850 | 26466 ft | 313 kts | 140° |
| 2026-05-01 12:44 | -6.05293 | -35.79563 | 26042 ft | 310 kts | 141° |
| 2026-05-01 12:44 | -6.07027 | -35.78308 | 25628 ft | 307 kts | 141° |
| 2026-05-01 12:44 | -6.10445 | -35.75832 | 24804 ft | 302 kts | 140° |
| 2026-05-01 12:45 | -6.13839 | -35.73374 | 23973 ft | 297 kts | 140° |
| 2026-05-01 12:45 | -6.15508 | -35.72165 | 23561 ft | 296 kts | 140° |
| 2026-05-01 12:45 | -6.17168 | -35.70962 | 23154 ft | 294 kts | 140° |
| 2026-05-01 12:46 | -6.18821 | -35.69764 | 22805 ft | 291 kts | 140° |
| 2026-05-01 12:46 | -6.20463 | -35.68576 | 22464 ft | 287 kts | 140° |
| 2026-05-01 12:46 | -6.22070 | -35.67411 | 22132 ft | 284 kts | 140° |
| 2026-05-01 12:46 | -6.23658 | -35.66261 | 21810 ft | 281 kts | 140° |
| 2026-05-01 12:47 | -6.25252 | -35.65105 | 21478 ft | 278 kts | 140° |
| 2026-05-01 12:47 | -6.26814 | -35.63974 | 21153 ft | 276 kts | 140° |
| 2026-05-01 12:47 | -6.28364 | -35.62851 | 20833 ft | 274 kts | 140° |
| 2026-05-01 12:47 | -6.29891 | -35.61743 | 20512 ft | 272 kts | 140° |
| 2026-05-01 12:48 | -6.31422 | -35.60633 | 20186 ft | 270 kts | 140° |
| 2026-05-01 12:48 | -6.32963 | -35.59516 | 19861 ft | 268 kts | 140° |
| 2026-05-01 12:48 | -6.34462 | -35.58429 | 19542 ft | 267 kts | 140° |
| 2026-05-01 12:48 | -6.35956 | -35.57346 | 19215 ft | 265 kts | 140° |
| 2026-05-01 12:49 | -6.37449 | -35.56264 | 18889 ft | 264 kts | 139° |
| 2026-05-01 12:49 | -6.38943 | -35.55180 | 18565 ft | 262 kts | 139° |
| 2026-05-01 12:49 | -6.40425 | -35.54105 | 18234 ft | 261 kts | 140° |
| 2026-05-01 12:49 | -6.41896 | -35.53038 | 17912 ft | 259 kts | 140° |
| 2026-05-01 12:50 | -6.43360 | -35.51976 | 17585 ft | 258 kts | 140° |
| 2026-05-01 12:50 | -6.44798 | -35.50933 | 17263 ft | 257 kts | 139° |
| 2026-05-01 12:50 | -6.46262 | -35.49871 | 16938 ft | 256 kts | 140° |
| 2026-05-01 12:50 | -6.47714 | -35.48817 | 16606 ft | 256 kts | 140° |
| 2026-05-01 12:51 | -6.49159 | -35.47768 | 16276 ft | 256 kts | 139° |
| 2026-05-01 12:51 | -6.50601 | -35.46722 | 15946 ft | 256 kts | 139° |
| 2026-05-01 12:51 | -6.53473 | -35.44638 | 15308 ft | 255 kts | 139° |
| 2026-05-01 12:52 | -6.54912 | -35.43593 | 14978 ft | 256 kts | 139° |
| 2026-05-01 12:52 | -6.57808 | -35.41491 | 14323 ft | 255 kts | 139° |
| 2026-05-01 12:52 | -6.59252 | -35.40443 | 13995 ft | 256 kts | 139° |
| 2026-05-01 12:53 | -6.62137 | -35.38348 | 13337 ft | 256 kts | 140° |
| 2026-05-01 12:53 | -6.63591 | -35.37293 | 13001 ft | 257 kts | 139° |
| 2026-05-01 12:53 | -6.65049 | -35.36234 | 12680 ft | 257 kts | 140° |
| 2026-05-01 12:54 | -6.66496 | -35.35183 | 12376 ft | 257 kts | 140° |
| 2026-05-01 12:54 | -6.69398 | -35.33075 | 11773 ft | 256 kts | 139° |
| 2026-05-01 12:54 | -6.70839 | -35.32029 | 11461 ft | 256 kts | 139° |
| 2026-05-01 12:55 | -6.73706 | -35.29948 | 10842 ft | 250 kts | 140° |
| 2026-05-01 12:55 | -6.75110 | -35.28930 | 10541 ft | 248 kts | 139° |
| 2026-05-01 12:55 | -6.76488 | -35.27928 | 10247 ft | 245 kts | 139° |
| 2026-05-01 12:56 | -6.77869 | -35.26925 | 9942 ft | 244 kts | 139° |
| 2026-05-01 12:56 | -6.79245 | -35.25925 | 9621 ft | 242 kts | 140° |
| 2026-05-01 12:56 | -6.80605 | -35.24937 | 9311 ft | 241 kts | 140° |
| 2026-05-01 12:56 | -6.81970 | -35.23945 | 9011 ft | 240 kts | 139° |
| 2026-05-01 12:57 | -6.83329 | -35.22957 | 8705 ft | 239 kts | 140° |
| 2026-05-01 12:57 | -6.86032 | -35.20990 | 7940 ft | 241 kts | 140° |
| 2026-05-01 12:57 | -6.87396 | -35.19999 | 7516 ft | 242 kts | 140° |
| 2026-05-01 12:58 | -6.88755 | -35.19011 | 7084 ft | 241 kts | 140° |
| 2026-05-01 12:58 | -6.90118 | -35.18020 | 6654 ft | 241 kts | 140° |
| 2026-05-01 12:58 | -6.91483 | -35.17028 | 6222 ft | 240 kts | 141° |
| 2026-05-01 12:59 | -6.94163 | -35.15079 | 5367 ft | 238 kts | 141° |
| 2026-05-01 12:59 | -6.95499 | -35.14107 | 4940 ft | 236 kts | 141° |
| 2026-05-01 12:59 | -6.97918 | -35.11941 | 4074 ft | 231 kts | 134° |
| 2026-05-01 13:00 | -7.00179 | -35.09684 | 3205 ft | 226 kts | 134° |
| 2026-05-01 13:00 | -7.01287 | -35.08574 | 2773 ft | 223 kts | 134° |
| 2026-05-01 13:01 | -7.03321 | -35.06542 | 2233 ft | 192 kts | 135° |
| 2026-05-01 13:01 | -7.04243 | -35.05622 | 2099 ft | 183 kts | 135° |
| 2026-05-01 13:01 | -7.05994 | -35.03875 | 1840 ft | 171 kts | 136° |
| 2026-05-01 13:02 | -7.06837 | -35.03037 | 1723 ft | 166 kts | 136° |
| 2026-05-01 13:07 | -7.14735 | -34.95194 | 215 ft | 23 kts | 314° |
| 2026-05-01 13:07 | -7.14612 | -34.95315 | 215 ft | 15 kts | 315° |
| 2026-05-01 13:07 | -7.14527 | -34.95320 | 215 ft | 14 kts | 23° |
| 2026-05-01 13:08 | -7.14423 | -34.95277 | 215 ft | 17 kts | 23° |
| 2026-05-01 13:08 | -7.14382 | -34.95217 | 215 ft | 7 kts | 91° |
| 2026-05-01 13:08 | -7.14385 | -34.95177 | 215 ft | 3 kts | 66° |
| 2026-05-01 13:08 | -7.14362 | -34.95173 | 215 ft | 0 kts | 21° |
| 2026-05-01 13:09 | -7.14360 | -34.95169 | 215 ft | 0 kts | 91° |
| 2026-05-01 13:09 | -7.14362 | -34.95168 | 215 ft | 0 kts | 147° |